Vina, California
Current Conditions -  °F | °C
As of 9:54 PM on Wednesday 17 Dec 2014 (Local Time) from KRBL Reporting Station
Light Rain Light Rain  
Wind Chill: 50°   Ceiling: 5000
Heat Index: 50°   Visibility: 10mi
Dew Point: 48°   Wind: 8mph
Humidity: 93%   Direction: 160°SSE
Pressure: 30.09"   Gusts: NA
Location:  39.93°N, 122.06°W
Report Text: KRBL 180554Z AUTO 16007KT 10SM -RA OVC050 10/09 A3009 RMK AO2 SLP187 P0000 60012 T01000089 10117 20094 51017
Loading
Personal Weather Stations






























Interactive Weather Map New forecast layout! Learn more

10-Day Weather Forecast

Advertisements
Track Severe Weather on mobile